createdAt,value
2018-05-26T00:01:01.382Z,72.77
2018-05-26T00:03:30.449Z,72.54
2018-05-26T00:05:59.487Z,72.74
2018-05-26T00:08:27.942Z,72.53
2018-05-26T00:10:56.056Z,72.59
2018-05-26T00:13:25.314Z,72.50
2018-05-26T00:15:53.445Z,72.36
2018-05-26T00:18:21.549Z,72.58
2018-05-26T00:20:49.667Z,72.60
2018-05-26T00:23:17.824Z,72.76
2018-05-26T00:25:45.895Z,73.05
2018-05-26T00:28:19.572Z,73.04
2018-05-26T00:30:47.682Z,72.94
2018-05-26T00:33:15.780Z,73.13
2018-05-26T00:35:44.716Z,73.34
2018-05-26T00:38:13.704Z,73.34
2018-05-26T00:40:41.825Z,73.61
2018-05-26T00:43:10.800Z,73.42
2018-05-26T00:45:39.149Z,73.21
2018-05-26T00:48:07.261Z,73.20
2018-05-26T00:50:35.379Z,73.06
2018-05-26T00:53:03.497Z,73.18
2018-05-26T00:55:33.237Z,73.29
2018-05-26T00:58:01.456Z,73.96
2018-05-26T01:00:29.614Z,74.42
2018-05-26T01:02:57.712Z,74.76
2018-05-26T01:05:25.804Z,75.40
2018-05-26T01:07:53.965Z,76.34
2018-05-26T01:10:22.123Z,76.58
2018-05-26T01:12:50.227Z,76.23
2018-05-26T01:15:18.361Z,76.18
2018-05-26T01:17:46.809Z,75.93
2018-05-26T01:20:14.937Z,75.68
2018-05-26T01:22:43.520Z,75.58
2018-05-26T01:25:11.639Z,75.51
2018-05-26T01:27:39.867Z,75.54
2018-05-26T01:30:08.024Z,75.48
2018-05-26T01:32:36.145Z,75.73
2018-05-26T01:35:05.259Z,75.86
2018-05-26T01:37:33.373Z,75.80
2018-05-26T01:40:01.504Z,75.76
2018-05-26T01:55:29.631Z,75.96
2018-05-26T01:57:57.743Z,75.70
2018-05-26T02:00:25.841Z,75.42
2018-05-26T02:02:54.005Z,75.11
2018-05-26T02:05:22.571Z,75.28
2018-05-26T02:07:56.186Z,75.51
2018-05-26T02:10:24.282Z,75.83
2018-05-26T02:12:53.027Z,75.96
2018-05-26T02:15:22.093Z,76.09
2018-05-26T02:17:50.276Z,76.04
2018-05-26T02:20:19.177Z,75.97
2018-05-26T02:22:47.295Z,76.03
2018-05-26T02:25:15.405Z,76.10
2018-05-26T02:27:43.529Z,76.33
2018-05-26T02:30:12.235Z,76.22
2018-05-26T02:32:41.374Z,76.30
2018-05-26T02:35:09.494Z,76.39
2018-05-26T02:37:37.591Z,76.56
2018-05-26T02:40:06.442Z,76.68
2018-05-26T02:42:34.581Z,76.39
2018-05-26T02:45:02.690Z,76.52
2018-05-26T02:47:30.800Z,76.70
2018-05-26T02:49:58.960Z,76.81
2018-05-26T02:52:32.639Z,76.74
2018-05-26T02:55:00.766Z,76.62
2018-05-26T02:57:28.874Z,76.39
2018-05-26T02:59:56.987Z,76.06
2018-05-26T03:02:25.084Z,76.11
2018-05-26T03:04:58.787Z,75.90
2018-05-26T03:07:32.438Z,76.12
2018-05-26T03:10:06.856Z,76.18
2018-05-26T03:12:40.623Z,75.91
2018-05-26T03:15:08.184Z,75.91
2018-05-26T03:17:40.687Z,75.91
2018-05-26T03:20:08.811Z,75.86
2018-05-26T03:22:36.979Z,75.85
2018-05-26T03:38:01.124Z,75.46
2018-05-26T03:40:29.253Z,75.62
2018-05-26T03:42:57.363Z,75.46
2018-05-26T03:45:25.490Z,75.17
2018-05-26T03:47:53.645Z,75.18
2018-05-26T03:50:21.747Z,75.11
2018-05-26T03:52:49.881Z,74.86
2018-05-26T03:55:38.711Z,74.84
2018-05-26T03:58:18.665Z,74.85
2018-05-26T04:13:46.802Z,74.35
2018-05-26T04:16:15.785Z,74.26
2018-05-26T04:18:44.091Z,74.08
2018-05-26T04:21:12.249Z,74.01
2018-05-26T04:23:40.388Z,73.91
2018-05-26T04:26:08.491Z,73.71
2018-05-26T04:38:21.669Z,72.97
2018-05-26T04:40:49.806Z,72.68
2018-05-26T04:43:17.917Z,72.41
2018-05-26T04:58:46.395Z,72.07
2018-05-26T05:01:14.527Z,72.13
2018-05-26T05:03:42.701Z,71.92
2018-05-26T05:06:15.776Z,71.88
2018-05-26T05:08:43.873Z,71.55
2018-05-26T05:11:12.446Z,71.46
2018-05-26T05:13:40.606Z,71.21
2018-05-26T05:16:08.713Z,71.05
2018-05-26T05:18:36.835Z,71.36
2018-05-26T05:21:05.942Z,71.47
2018-05-26T05:23:34.960Z,71.47
2018-05-26T05:26:03.640Z,71.33
2018-05-26T05:28:32.249Z,71.42
2018-05-26T05:31:00.389Z,71.15
2018-05-26T05:33:28.499Z,70.96
2018-05-26T05:35:56.593Z,70.94
2018-05-26T05:38:25.025Z,70.71
2018-05-26T05:40:53.178Z,70.68
2018-05-26T05:43:21.590Z,70.40
2018-05-26T05:45:54.701Z,70.34
2018-05-26T05:48:22.801Z,70.23
2018-05-26T05:50:50.924Z,70.15
2018-05-26T05:53:19.901Z,70.12
2018-05-26T05:55:48.056Z,69.98
2018-05-26T05:58:16.169Z,69.60
2018-05-26T06:00:44.315Z,69.84
2018-05-26T06:03:12.478Z,69.75
2018-05-26T06:05:40.584Z,69.83
2018-05-26T06:08:08.698Z,69.35
2018-05-26T06:10:36.824Z,69.21
2018-05-26T06:13:05.859Z,69.07
2018-05-26T06:15:33.988Z,68.91
2018-05-26T06:18:02.470Z,69.08
2018-05-26T06:20:30.569Z,68.82
2018-05-26T06:22:58.721Z,69.03
2018-05-26T06:25:26.859Z,69.15
2018-05-26T06:27:55.480Z,69.27
2018-05-26T06:30:24.390Z,69.28
2018-05-26T06:32:53.052Z,69.22
2018-05-26T06:35:21.154Z,69.18
2018-05-26T06:37:49.255Z,68.94
2018-05-26T06:40:17.381Z,67.94
2018-05-26T06:42:45.491Z,66.33
2018-05-26T06:45:13.700Z,64.08
2018-05-26T06:47:41.838Z,62.71
2018-05-26T06:50:10.440Z,62.20
2018-05-26T06:52:39.425Z,60.92
2018-05-26T06:55:07.549Z,59.76
2018-05-26T06:57:35.672Z,58.80
2018-05-26T07:00:03.838Z,57.69
2018-05-26T07:02:31.965Z,57.40
2018-05-26T07:05:00.116Z,57.48
2018-05-26T07:07:28.221Z,57.21
2018-05-26T07:09:56.370Z,57.11
2018-05-26T07:12:24.479Z,58.07
2018-05-26T07:14:52.584Z,58.13
2018-05-26T07:17:22.274Z,56.30
2018-05-26T07:19:50.886Z,55.78
2018-05-26T07:22:19.013Z,55.75
2018-05-26T07:24:47.217Z,55.69
2018-05-26T07:27:15.399Z,55.99
2018-05-26T07:29:43.495Z,56.08
2018-05-26T07:32:11.880Z,56.23
2018-05-26T07:34:39.980Z,56.97
2018-05-26T07:37:08.400Z,57.36
2018-05-26T07:39:36.564Z,57.40
2018-05-26T07:42:04.752Z,56.79
2018-05-26T07:44:33.372Z,56.11
2018-05-26T07:47:01.512Z,55.52
2018-05-26T07:49:29.624Z,55.02
2018-05-26T07:51:57.777Z,55.29
2018-05-26T07:54:26.766Z,54.90
2018-05-26T07:56:54.925Z,55.03
2018-05-26T07:59:23.030Z,55.36
2018-05-26T08:01:51.180Z,56.11
2018-05-26T08:04:19.341Z,56.11
2018-05-26T08:06:47.444Z,55.81
2018-05-26T08:09:16.468Z,56.03
2018-05-26T08:11:44.583Z,56.03
2018-05-26T08:14:12.690Z,56.92
2018-05-26T08:16:40.828Z,56.80
2018-05-26T08:19:08.973Z,57.43
2018-05-26T08:21:37.075Z,57.22
2018-05-26T08:24:05.178Z,57.82
2018-05-26T08:26:33.341Z,57.78
2018-05-26T08:29:01.442Z,57.42
2018-05-26T08:31:30.491Z,57.82
2018-05-26T08:33:58.617Z,57.80
2018-05-26T08:36:26.759Z,56.55
2018-05-26T08:38:54.884Z,56.18
2018-05-26T08:41:23.014Z,56.39
2018-05-26T08:43:51.936Z,57.33
2018-05-26T08:46:20.043Z,57.34
2018-05-26T08:48:48.222Z,57.02
2018-05-26T08:51:16.321Z,57.11
2018-05-26T08:53:44.416Z,57.69
2018-05-26T08:56:12.535Z,57.76
2018-05-26T08:58:40.661Z,57.39
2018-05-26T09:01:09.568Z,57.53
2018-05-26T09:03:37.711Z,57.23
2018-05-26T09:06:05.817Z,57.23
2018-05-26T09:08:33.952Z,57.42
2018-05-26T09:11:02.065Z,57.81
2018-05-26T09:13:31.015Z,57.31
2018-05-26T09:15:59.163Z,57.41
2018-05-26T09:18:27.249Z,57.00
2018-05-26T09:20:55.359Z,56.75
2018-05-26T09:23:24.229Z,56.15
2018-05-26T09:25:52.351Z,55.78
2018-05-26T09:28:20.475Z,56.26
2018-05-26T09:30:48.624Z,55.57
2018-05-26T09:33:16.735Z,56.03
2018-05-26T09:35:45.403Z,56.21
2018-05-26T09:38:13.556Z,53.70
2018-05-26T09:40:41.708Z,53.92
2018-05-26T09:43:10.097Z,53.83
2018-05-26T09:45:43.829Z,53.20
2018-05-26T09:48:11.928Z,54.37
2018-05-26T09:50:40.039Z,53.90
2018-05-26T09:53:08.156Z,53.81
2018-05-26T09:55:36.259Z,54.13
2018-05-26T09:58:04.389Z,54.39
2018-05-26T10:00:32.501Z,54.69
2018-05-26T10:03:00.630Z,54.46
2018-05-26T10:05:28.759Z,54.34
2018-05-26T10:07:56.861Z,54.59
2018-05-26T10:10:24.981Z,52.73
2018-05-26T10:12:53.089Z,54.00
2018-05-26T10:15:21.194Z,53.65
2018-05-26T10:17:49.334Z,54.16
2018-05-26T10:20:17.708Z,54.25
2018-05-26T10:22:45.821Z,54.51
2018-05-26T10:25:14.029Z,54.95
2018-05-26T10:27:42.129Z,53.78
2018-05-26T10:30:10.257Z,54.02
2018-05-26T10:32:38.406Z,52.58
2018-05-26T10:35:06.505Z,53.37
2018-05-26T10:37:34.613Z,53.49
2018-05-26T10:40:02.792Z,53.08
2018-05-26T10:42:30.895Z,52.79
2018-05-26T10:44:58.999Z,52.31
2018-05-26T10:47:28.009Z,51.81
2018-05-26T10:49:56.124Z,51.55
2018-05-26T10:52:24.229Z,50.82
2018-05-26T10:54:52.329Z,51.61
2018-05-26T10:57:20.449Z,51.56
2018-05-26T10:59:48.613Z,50.42
2018-05-26T11:02:16.729Z,50.36
2018-05-26T11:04:50.447Z,50.00
2018-05-26T11:07:18.549Z,50.15
2018-05-26T11:09:46.654Z,49.50
2018-05-26T11:12:14.801Z,49.70
2018-05-26T11:14:42.947Z,50.56
2018-05-26T11:17:16.618Z,50.48
2018-05-26T11:19:50.162Z,48.74
2018-05-26T11:22:18.798Z,49.16
2018-05-26T11:24:46.927Z,48.43
2018-05-26T11:27:15.070Z,48.81
2018-05-26T11:29:43.189Z,49.37
2018-05-26T11:32:11.305Z,49.13
2018-05-26T11:34:39.428Z,48.04
2018-05-26T11:37:08.209Z,48.06
2018-05-26T11:39:36.320Z,48.02
2018-05-26T11:42:04.447Z,48.00
2018-05-26T11:44:33.350Z,48.67
2018-05-26T11:47:01.447Z,49.20
2018-05-26T11:49:29.561Z,46.96
2018-05-26T11:51:58.249Z,46.59
2018-05-26T11:54:26.361Z,47.27
2018-05-26T11:56:54.469Z,46.66
2018-05-26T11:59:22.641Z,46.58
2018-05-26T12:01:51.174Z,44.82
2018-05-26T12:04:19.264Z,43.46
2018-05-26T12:06:47.349Z,43.61
2018-05-26T12:09:15.469Z,43.92
2018-05-26T12:11:43.611Z,45.00
2018-05-26T12:14:11.701Z,44.57
2018-05-26T12:16:40.024Z,44.73
2018-05-26T12:19:08.172Z,44.90
2018-05-26T12:21:36.288Z,43.63
2018-05-26T12:24:04.787Z,43.76
2018-05-26T12:26:33.249Z,43.46
2018-05-26T12:29:06.989Z,43.91
2018-05-26T12:31:40.513Z,44.99
2018-05-26T12:34:08.649Z,44.91
2018-05-26T12:36:36.767Z,45.14
2018-05-26T12:39:05.653Z,44.92
2018-05-26T12:41:34.404Z,44.76
2018-05-26T12:44:02.593Z,45.53
2018-05-26T12:46:30.689Z,46.68
2018-05-26T12:48:58.917Z,46.62
2018-05-26T12:51:27.052Z,46.03
2018-05-26T12:53:55.153Z,44.58
2018-05-26T12:56:28.853Z,43.99
2018-05-26T12:58:56.991Z,45.11
2018-05-26T13:01:25.094Z,45.93
2018-05-26T13:03:54.890Z,46.02
2018-05-26T13:06:23.041Z,45.72
2018-05-26T13:08:51.231Z,44.38
2018-05-26T13:11:19.308Z,44.82
2018-05-26T13:13:47.441Z,45.20
2018-05-26T13:16:15.668Z,43.73
2018-05-26T13:18:49.445Z,44.66
2018-05-26T13:21:17.585Z,45.12
2018-05-26T13:23:45.742Z,45.68
2018-05-26T13:26:14.728Z,45.98
2018-05-26T13:28:42.847Z,45.93
2018-05-26T13:31:10.953Z,45.37
2018-05-26T13:46:39.385Z,46.25
2018-05-26T13:49:07.508Z,46.08
2018-05-26T13:51:36.190Z,45.80
2018-05-26T13:54:04.316Z,45.99
2018-05-26T13:56:32.482Z,45.78
2018-05-26T13:59:00.589Z,45.26
2018-05-26T14:01:28.713Z,45.01
2018-05-26T14:03:56.829Z,45.21
2018-05-26T14:06:24.977Z,46.04
2018-05-26T14:08:53.105Z,46.17
2018-05-26T14:11:21.239Z,46.79
2018-05-26T14:13:50.079Z,46.23
2018-05-26T14:16:18.220Z,46.12
2018-05-26T14:18:47.863Z,45.57
2018-05-26T14:21:16.197Z,44.92
2018-05-26T14:23:44.329Z,44.89
2018-05-26T14:26:13.045Z,44.53
2018-05-26T14:28:41.157Z,44.76
2018-05-26T14:31:09.783Z,43.76
2018-05-26T14:33:38.157Z,44.53
2018-05-26T14:36:06.318Z,44.87
2018-05-26T14:38:34.441Z,44.97
2018-05-26T14:54:02.564Z,43.24
2018-05-26T14:56:31.433Z,44.20
2018-05-26T14:58:59.533Z,44.10
2018-05-26T15:01:27.643Z,44.09
2018-05-26T15:03:55.797Z,43.56
2018-05-26T15:06:23.905Z,43.94
2018-05-26T15:08:52.641Z,44.45
2018-05-26T15:11:21.077Z,44.92
2018-05-26T15:13:49.189Z,44.89
2018-05-26T15:16:17.295Z,44.58
2018-05-26T15:18:46.001Z,44.57
2018-05-26T15:21:15.109Z,43.85
2018-05-26T15:23:43.273Z,44.35
2018-05-26T15:26:11.393Z,44.52
2018-05-26T15:28:39.494Z,44.93
2018-05-26T15:31:07.601Z,43.15
2018-05-26T15:33:37.003Z,42.27
2018-05-26T15:36:05.087Z,43.10
2018-05-26T15:38:33.265Z,43.52
2018-05-26T15:41:01.373Z,43.69
2018-05-26T15:43:29.469Z,43.55
2018-05-26T15:45:57.639Z,42.85
2018-05-26T15:48:26.671Z,43.30
2018-05-26T15:50:54.832Z,43.19
2018-05-26T15:53:22.960Z,43.40
2018-05-26T15:55:51.136Z,43.58
2018-05-26T15:58:19.252Z,43.58
2018-05-26T16:00:47.339Z,43.52
2018-05-26T16:03:15.442Z,43.18
2018-05-26T16:05:48.523Z,43.38
2018-05-26T16:08:16.690Z,43.81
2018-05-26T16:10:44.837Z,44.16
2018-05-26T16:13:12.917Z,43.47
2018-05-26T16:15:41.011Z,43.65
2018-05-26T16:18:09.121Z,43.29
2018-05-26T16:20:38.021Z,43.07
2018-05-26T16:23:06.755Z,43.32
2018-05-26T16:25:34.841Z,43.32
2018-05-26T16:28:02.936Z,42.96
2018-05-26T16:30:31.039Z,42.21
2018-05-26T16:32:59.941Z,42.19
2018-05-26T16:35:28.081Z,42.56
2018-05-26T16:50:56.221Z,43.25
2018-05-26T16:53:24.328Z,43.05
2018-05-26T16:55:52.434Z,43.04
2018-05-26T16:58:21.469Z,42.88
2018-05-26T17:00:49.603Z,42.57
2018-05-26T17:03:17.696Z,42.70
2018-05-26T17:05:46.069Z,42.96
2018-05-26T17:08:14.179Z,43.01
2018-05-26T17:10:42.315Z,42.45
2018-05-26T17:13:10.508Z,42.23
2018-05-26T17:15:38.689Z,42.28
2018-05-26T17:18:06.769Z,41.97
2018-05-26T17:20:34.938Z,41.70
2018-05-26T17:23:08.505Z,41.76
2018-05-26T17:25:36.610Z,42.17
2018-05-26T17:28:04.713Z,42.10
2018-05-26T17:30:33.727Z,42.20
2018-05-26T17:33:02.060Z,41.17
2018-05-26T17:35:30.140Z,41.34
2018-05-26T17:37:58.906Z,41.32
2018-05-26T17:40:26.988Z,41.63
2018-05-26T17:42:55.167Z,41.20
2018-05-26T17:45:23.289Z,41.19
2018-05-26T17:47:51.410Z,40.93
2018-05-26T17:50:19.501Z,41.21
2018-05-26T17:52:47.637Z,41.37
2018-05-26T17:55:15.722Z,41.03
2018-05-26T17:57:43.822Z,41.07
2018-05-26T18:00:12.293Z,40.88
2018-05-26T18:02:40.444Z,41.02
2018-05-26T18:05:08.534Z,41.43
2018-05-26T18:07:36.662Z,41.56
2018-05-26T18:10:04.754Z,41.62
2018-05-26T18:12:32.853Z,41.59
2018-05-26T18:15:01.020Z,41.82
2018-05-26T18:17:29.324Z,41.74
2018-05-26T18:19:57.426Z,41.98
2018-05-26T18:22:25.539Z,41.42
2018-05-26T18:24:53.627Z,41.53
2018-05-26T18:27:21.735Z,41.55
2018-05-26T18:29:49.917Z,41.51
2018-05-26T18:32:18.884Z,41.61
2018-05-26T18:34:47.087Z,41.33
2018-05-26T18:37:15.424Z,41.13
2018-05-26T18:39:43.546Z,41.53
2018-05-26T18:42:11.649Z,41.63
2018-05-26T18:44:40.479Z,41.36
2018-05-26T18:47:09.048Z,41.43
2018-05-26T18:49:37.145Z,41.50
2018-05-26T18:52:06.076Z,41.69
2018-05-26T18:54:35.169Z,41.45
2018-05-26T18:57:03.351Z,41.82
2018-05-26T18:59:31.514Z,41.62
2018-05-26T19:02:00.604Z,41.57
2018-05-26T19:04:28.706Z,41.87
2018-05-26T19:06:56.827Z,41.84
2018-05-26T19:09:24.954Z,42.05
2018-05-26T19:11:53.054Z,42.02
2018-05-26T19:14:21.164Z,41.86
2018-05-26T19:16:49.264Z,42.20
2018-05-26T19:19:17.355Z,42.43
2018-05-26T19:21:45.457Z,42.71
2018-05-26T19:24:13.552Z,42.80
2018-05-26T19:26:41.719Z,42.81
2018-05-26T19:29:09.795Z,43.24
2018-05-26T19:31:38.674Z,43.48
2018-05-26T19:34:07.446Z,43.88
2018-05-26T19:36:35.546Z,43.96
2018-05-26T19:39:04.370Z,43.96
2018-05-26T19:41:32.470Z,44.27
2018-05-26T19:44:01.338Z,43.76
2018-05-26T19:46:29.406Z,43.71
2018-05-26T19:48:57.512Z,43.48
2018-05-26T19:51:25.631Z,43.46
2018-05-26T19:53:58.690Z,43.35
2018-05-26T19:56:26.826Z,43.39
2018-05-26T19:58:55.410Z,43.21
2018-05-26T20:01:23.542Z,43.42
2018-05-26T20:03:51.664Z,43.29
2018-05-26T20:06:19.756Z,43.60
2018-05-26T20:08:49.185Z,43.51
2018-05-26T20:11:17.504Z,43.89
2018-05-26T20:13:45.625Z,44.13
2018-05-26T20:16:13.737Z,44.19
2018-05-26T20:18:41.862Z,44.31
2018-05-26T20:21:10.018Z,44.62
2018-05-26T20:23:38.167Z,44.42
2018-05-26T20:26:06.398Z,44.29
2018-05-26T20:28:34.734Z,44.04
2018-05-26T20:31:02.848Z,44.11
2018-05-26T20:33:32.674Z,43.96
2018-05-26T20:36:03.490Z,43.96
2018-05-26T20:38:34.748Z,43.87
2018-05-26T20:49:59.987Z,43.10
2018-05-26T20:52:28.106Z,42.83
2018-05-26T20:54:56.452Z,42.69
2018-05-26T20:57:25.302Z,42.12
2018-05-26T20:59:53.483Z,42.32
2018-05-26T21:02:21.533Z,42.36
2018-05-26T21:04:49.676Z,42.18
2018-05-26T21:07:17.806Z,42.29
2018-05-26T21:09:46.177Z,42.15
2018-05-26T21:12:14.288Z,41.67
2018-05-26T21:14:42.737Z,41.52
2018-05-26T21:17:10.954Z,41.36
2018-05-26T21:19:39.058Z,41.22
2018-05-26T21:22:07.195Z,41.13
2018-05-26T21:24:35.300Z,41.19
2018-05-26T21:27:03.449Z,41.11
2018-05-26T21:29:31.588Z,41.16
2018-05-26T21:31:59.694Z,41.18
2018-05-26T21:34:27.844Z,40.89
2018-05-26T21:36:55.941Z,41.07
2018-05-26T21:39:24.044Z,41.13
2018-05-26T21:41:52.170Z,41.12
2018-05-26T21:44:20.273Z,41.24
2018-05-26T21:46:48.362Z,41.32
2018-05-26T21:49:16.560Z,41.42
2018-05-26T21:51:44.657Z,41.46
2018-05-26T21:54:12.776Z,41.38
2018-05-26T21:56:40.905Z,41.59
2018-05-26T21:59:08.997Z,41.11
2018-05-26T22:01:37.101Z,41.54
2018-05-26T22:04:05.200Z,41.45
2018-05-26T22:06:33.291Z,41.75
2018-05-26T22:09:01.434Z,41.55
2018-05-26T22:11:29.536Z,41.98
2018-05-26T22:13:57.648Z,42.29
2018-05-26T22:16:25.753Z,42.12
2018-05-26T22:18:53.896Z,42.59
2018-05-26T22:21:21.989Z,42.67
2018-05-26T22:23:50.949Z,42.90
2018-05-26T22:26:19.050Z,42.86
2018-05-26T22:28:47.174Z,43.40
2018-05-26T22:31:15.275Z,43.54
2018-05-26T22:33:43.374Z,44.06
2018-05-26T22:36:11.482Z,44.84
2018-05-26T22:38:39.576Z,44.97
2018-05-26T22:41:07.698Z,45.00
2018-05-26T22:43:35.814Z,44.82
2018-05-26T22:46:03.944Z,45.18
2018-05-26T22:48:32.054Z,45.17
2018-05-26T22:51:00.465Z,45.36
2018-05-26T22:53:28.609Z,45.59
2018-05-26T22:55:56.717Z,45.00
2018-05-26T22:58:24.828Z,45.30
2018-05-26T23:00:52.934Z,45.30
2018-05-26T23:03:21.056Z,45.09
2018-05-26T23:05:49.296Z,45.25
2018-05-26T23:08:17.345Z,44.76
2018-05-26T23:10:45.470Z,44.56
2018-05-26T23:13:13.566Z,44.24
2018-05-26T23:15:41.660Z,43.77
2018-05-26T23:18:09.774Z,43.52
2018-05-26T23:20:37.876Z,43.56
2018-05-26T23:23:05.981Z,43.44
2018-05-26T23:25:34.097Z,43.01
2018-05-26T23:28:02.194Z,43.26
2018-05-26T23:30:30.290Z,43.46
2018-05-26T23:32:58.562Z,43.53
2018-05-26T23:35:26.662Z,43.78
2018-05-26T23:37:54.732Z,43.84
2018-05-26T23:40:22.856Z,43.87
2018-05-26T23:42:50.948Z,44.00
2018-05-26T23:45:19.068Z,44.05
2018-05-26T23:47:47.218Z,44.21
2018-05-26T23:50:15.353Z,44.13
2018-05-26T23:52:43.456Z,44.38
2018-05-26T23:55:11.572Z,44.36
2018-05-26T23:57:39.668Z,44.63
